Time;durP1;ratioP1;P1;durP2;ratioP2;P2;SDS_P1;SDS_P2;PMS_P1;PMS_P2;Temp;Humidity;BMP_temperature;BMP_pressure;BME280_temperature;BME280_humidity;BME280_pressure;Samples;Min_cycle;Max_cycle;Signal;HPM_P1;HPM_P2
2022/09/05 00:02:32;;;;;;;;;2.33;2.33;;;;;;;;5078919;27;51416;-57
2022/09/05 00:05:16;;;;;;;;;4.00;3.33;;;;;;;;5074490;27;52231;-56
2022/09/05 00:08:00;;;;;;;;;3.00;3.00;;;;;;;;5085939;27;51017;-56
2022/09/05 00:10:25;;;;;;;;;5.00;5.00;;;;;;;;5075405;27;51053;-57
2022/09/05 00:12:51;;;;;;;;;3.50;3.25;;;;;;;;5076082;27;51131;-56
2022/09/05 00:15:17;;;;;;;;;2.67;2.67;;;;;;;;5087469;27;50936;-56
2022/09/05 00:17:45;;;;;;;;;2.33;2.33;;;;;;;;5080259;27;51057;-56
2022/09/05 00:20:33;;;;;;;;;3.00;3.00;;;;;;;;5073764;27;51119;-57
2022/09/05 00:23:09;;;;;;;;;3.00;3.00;;;;;;;;5081392;27;51940;-57
2022/09/05 00:25:40;;;;;;;;;2.00;2.00;;;;;;;;5075945;27;52181;-56
2022/09/05 00:28:26;;;;;;;;;4.00;4.00;;;;;;;;5085307;27;51466;-56
2022/09/05 00:31:05;;;;;;;;;3.00;3.00;;;;;;;;5076591;27;51179;-56
2022/09/05 00:33:35;;;;;;;;;3.00;3.00;;;;;;;;5081633;27;50891;-56
2022/09/05 00:36:21;;;;;;;;;3.00;3.00;;;;;;;;5083982;27;52088;-54
2022/09/05 00:39:00;;;;;;;;;2.00;2.00;;;;;;;;5088036;27;51017;-55
2022/09/05 00:41:27;;;;;;;;;2.33;2.33;;;;;;;;5079140;27;51065;-55
2022/09/05 00:43:53;;;;;;;;;2.00;2.00;;;;;;;;5090140;27;51114;-55
2022/09/05 00:46:21;;;;;;;;;3.00;3.00;;;;;;;;5082439;27;51377;-54
2022/09/05 00:49:01;;;;;;;;;1.67;1.67;;;;;;;;5088596;27;51078;-55
2022/09/05 00:51:33;;;;;;;;;3.00;3.00;;;;;;;;5081670;27;51285;-56
2022/09/05 00:54:01;;;;;;;;;2.67;2.67;;;;;;;;5089748;27;51829;-55
2022/09/05 00:56:26;;;;;;;;;3.00;3.00;;;;;;;;5086206;27;52115;-55
2022/09/05 00:58:51;;;;;;;;;2.67;2.67;;;;;;;;5089931;27;51068;-54
2022/09/05 01:01:40;;;;;;;;;4.00;4.00;;;;;;;;5084920;27;51060;-55
2022/09/05 01:04:24;;;;;;;;;2.00;2.00;;;;;;;;5079967;27;51804;-56
2022/09/05 01:07:07;;;;;;;;;4.00;3.33;;;;;;;;5086936;27;51375;-55
2022/09/05 01:09:37;;;;;;;;;4.00;4.00;;;;;;;;5076712;27;51121;-57
2022/09/05 01:12:05;;;;;;;;;2.00;2.00;;;;;;;;5085566;27;50978;-54
2022/09/05 01:14:55;;;;;;;;;3.00;2.00;;;;;;;;5079918;27;51180;-55
2022/09/05 01:17:26;;;;;;;;;4.00;3.00;;;;;;;;5079654;27;52440;-56
2022/09/05 01:19:58;;;;;;;;;4.00;3.00;;;;;;;;5084584;27;51157;-54
2022/09/05 01:22:39;;;;;;;;;3.67;3.67;;;;;;;;5086607;27;50981;-55
2022/09/05 01:25:27;;;;;;;;;2.67;2.00;;;;;;;;5083886;27;51395;-55
2022/09/05 01:27:59;;;;;;;;;3.00;3.00;;;;;;;;5080084;27;51852;-53
2022/09/05 01:30:24;;;;;;;;;4.00;4.00;;;;;;;;5085145;27;51222;-54
2022/09/05 01:32:50;;;;;;;;;5.00;5.00;;;;;;;;5085385;27;51315;-55
2022/09/05 01:35:27;;;;;;;;;4.00;3.00;;;;;;;;5079477;27;51302;-55
2022/09/05 01:38:05;;;;;;;;;3.00;2.67;;;;;;;;5079298;27;51177;-55
2022/09/05 01:40:33;;;;;;;;;2.00;2.00;;;;;;;;5090175;27;51139;-55
2022/09/05 01:43:16;;;;;;;;;3.67;3.67;;;;;;;;5077281;27;51118;-55
2022/09/05 01:46:00;;;;;;;;;4.00;4.00;;;;;;;;5081337;27;50989;-56
2022/09/05 01:48:25;;;;;;;;;3.33;3.33;;;;;;;;5085814;27;51154;-56
2022/09/05 01:51:01;;;;;;;;;4.00;3.67;;;;;;;;5090327;27;50843;-56
2022/09/05 01:53:35;;;;;;;;;4.33;4.00;;;;;;;;5090583;27;51061;-56
2022/09/05 01:56:17;;;;;;;;;2.00;2.00;;;;;;;;5087236;27;50916;-55
2022/09/05 01:58:47;;;;;;;;;3.00;3.00;;;;;;;;5090782;27;51100;-55
2022/09/05 02:01:35;;;;;;;;;4.00;4.00;;;;;;;;5087568;27;50889;-56
2022/09/05 02:04:00;;;;;;;;;4.67;4.67;;;;;;;;5074239;27;51023;-55
2022/09/05 02:06:28;;;;;;;;;3.33;3.00;;;;;;;;5078173;27;51096;-56
2022/09/05 02:09:04;;;;;;;;;4.67;4.00;;;;;;;;5090386;27;51290;-56
2022/09/05 02:11:50;;;;;;;;;5.00;5.00;;;;;;;;5092646;27;51137;-56
2022/09/05 02:14:27;;;;;;;;;3.00;3.00;;;;;;;;5088174;27;51152;-56
2022/09/05 02:16:54;;;;;;;;;4.00;4.00;;;;;;;;5085138;27;50969;-55
2022/09/05 02:19:29;;;;;;;;;5.00;4.00;;;;;;;;5075696;27;51485;-57
2022/09/05 02:22:10;;;;;;;;;6.33;5.33;;;;;;;;5075886;27;51080;-56
2022/09/05 02:24:36;;;;;;;;;5.00;5.00;;;;;;;;5079820;27;51012;-56
2022/09/05 02:27:25;;;;;;;;;4.00;4.00;;;;;;;;5092580;27;50945;-57
2022/09/05 02:30:00;;;;;;;;;3.33;3.33;;;;;;;;5081817;27;51038;-55
2022/09/05 02:32:31;;;;;;;;;4.00;4.00;;;;;;;;5091467;27;51167;-56
2022/09/05 02:35:00;;;;;;;;;3.00;3.00;;;;;;;;5081659;27;53415;-57
2022/09/05 02:37:35;;;;;;;;;4.00;4.00;;;;;;;;5074480;27;51151;-55
2022/09/05 02:40:20;;;;;;;;;3.33;3.33;;;;;;;;5073672;27;52794;-55
2022/09/05 02:42:54;;;;;;;;;4.00;3.33;;;;;;;;5073677;27;51001;-54
2022/09/05 02:45:31;;;;;;;;;5.00;4.00;;;;;;;;5079206;27;51071;-58
2022/09/05 02:47:59;;;;;;;;;5.33;4.67;;;;;;;;5080038;27;51129;-56
2022/09/05 02:50:33;;;;;;;;;4.33;4.00;;;;;;;;5087826;27;52345;-55
2022/09/05 02:52:59;;;;;;;;;4.00;4.00;;;;;;;;5092833;27;51048;-56
2022/09/05 02:55:42;;;;;;;;;5.00;4.00;;;;;;;;5080732;27;53347;-55
2022/09/05 02:58:10;;;;;;;;;3.00;3.00;;;;;;;;5081542;27;50859;-56
2022/09/05 03:00:47;;;;;;;;;6.00;5.00;;;;;;;;5080606;27;52354;-55
2022/09/05 03:03:25;;;;;;;;;5.67;5.67;;;;;;;;5073862;27;51052;-56
2022/09/05 03:06:00;;;;;;;;;5.00;4.33;;;;;;;;5068546;27;51101;-56
2022/09/05 03:08:31;;;;;;;;;5.00;5.00;;;;;;;;5079922;27;51179;-56
2022/09/05 03:11:02;;;;;;;;;4.33;4.33;;;;;;;;5078022;27;53729;-54
2022/09/05 03:13:33;;;;;;;;;5.00;5.00;;;;;;;;5077674;27;51286;-55
2022/09/05 03:16:04;;;;;;;;;6.00;5.00;;;;;;;;5083760;27;51215;-56
2022/09/05 03:18:41;;;;;;;;;3.00;3.00;;;;;;;;5079888;27;51121;-54
2022/09/05 03:21:24;;;;;;;;;5.00;5.00;;;;;;;;5093473;27;50987;-56
2022/09/05 03:24:08;;;;;;;;;5.33;5.00;;;;;;;;5072158;27;51004;-56
2022/09/05 03:26:33;;;;;;;;;5.67;4.67;;;;;;;;5081159;27;51321;-53
2022/09/05 03:29:02;;;;;;;;;5.00;5.00;;;;;;;;5072893;27;51184;-55
2022/09/05 03:31:27;;;;;;;;;6.00;6.00;;;;;;;;5074331;27;51240;-55
2022/09/05 03:34:01;;;;;;;;;6.00;6.00;;;;;;;;5090198;27;51296;-57
2022/09/05 03:36:36;;;;;;;;;6.00;6.00;;;;;;;;5086153;27;51068;-54
2022/09/05 03:39:10;;;;;;;;;6.00;5.33;;;;;;;;5088659;27;50889;-55
2022/09/05 03:41:54;;;;;;;;;5.00;5.00;;;;;;;;5093060;27;52483;-56
2022/09/05 03:44:29;;;;;;;;;5.67;4.00;;;;;;;;5072983;27;51146;-56
2022/09/05 03:47:09;;;;;;;;;5.00;5.00;;;;;;;;5071796;27;51074;-55
2022/09/05 03:50:05;;;;;;;;;6.33;6.00;;;;;;;;5072182;27;51149;-54
2022/09/05 03:52:49;;;;;;;;;4.67;4.67;;;;;;;;5069663;27;51032;-53
2022/09/05 03:55:32;;;;;;;;;6.00;5.33;;;;;;;;5081260;27;51205;-55
2022/09/05 03:58:26;;;;;;;;;4.67;4.67;;;;;;;;5080734;27;51086;-55
2022/09/05 04:01:07;;;;;;;;;5.00;5.00;;;;;;;;5072582;27;51063;-55
2022/09/05 04:03:39;;;;;;;;;6.33;6.33;;;;;;;;5086124;27;51977;-55
2022/09/05 04:06:07;;;;;;;;;5.67;5.00;;;;;;;;5074219;27;51156;-55
2022/09/05 04:08:40;;;;;;;;;5.00;4.67;;;;;;;;5076756;27;51030;-55
2022/09/05 04:11:16;;;;;;;;;5.33;5.33;;;;;;;;5079571;27;51125;-55
2022/09/05 04:13:59;;;;;;;;;6.00;6.00;;;;;;;;5078276;27;52250;-55
2022/09/05 04:16:27;;;;;;;;;5.33;5.33;;;;;;;;5089366;27;51162;-55
2022/09/05 04:18:55;;;;;;;;;5.33;5.00;;;;;;;;5087465;27;50924;-56
2022/09/05 04:21:28;;;;;;;;;6.00;6.00;;;;;;;;5088016;27;51267;-55
2022/09/05 04:24:06;;;;;;;;;7.00;6.33;;;;;;;;5082473;27;52163;-58
2022/09/05 04:26:41;;;;;;;;;6.00;6.00;;;;;;;;5078917;27;50934;-56
2022/09/05 04:29:13;;;;;;;;;4.00;4.00;;;;;;;;5083774;27;51572;-54
2022/09/05 04:31:51;;;;;;;;;5.00;4.00;;;;;;;;5085368;27;51155;-55
2022/09/05 04:34:34;;;;;;;;;6.00;5.00;;;;;;;;5086007;27;51758;-55
2022/09/05 04:37:02;;;;;;;;;5.00;5.00;;;;;;;;5078289;27;50907;-54
2022/09/05 04:39:28;;;;;;;;;3.67;3.67;;;;;;;;5078413;27;51307;-54
2022/09/05 04:41:59;;;;;;;;;5.00;5.00;;;;;;;;5083734;27;51073;-55
2022/09/05 04:44:36;;;;;;;;;4.00;4.00;;;;;;;;5085581;27;51974;-54
2022/09/05 04:47:10;;;;;;;;;6.33;5.33;;;;;;;;5078316;27;50969;-54
2022/09/05 04:49:40;;;;;;;;;9.00;8.00;;;;;;;;5081972;27;51027;-55
2022/09/05 04:52:11;;;;;;;;;6.00;6.00;;;;;;;;5087179;27;52624;-54
2022/09/05 04:54:45;;;;;;;;;10.00;9.00;;;;;;;;5078849;27;52386;-54
2022/09/05 04:57:17;;;;;;;;;7.67;7.67;;;;;;;;5075483;27;51205;-54
2022/09/05 04:59:48;;;;;;;;;6.00;5.33;;;;;;;;5077399;27;51055;-55
2022/09/05 05:02:20;;;;;;;;;7.67;7.33;;;;;;;;5090044;27;51945;-54
2022/09/05 05:04:46;;;;;;;;;8.00;7.00;;;;;;;;5078392;27;52394;-54
2022/09/05 05:07:29;;;;;;;;;6.00;5.00;;;;;;;;5078099;27;51116;-56
2022/09/05 05:09:57;;;;;;;;;6.67;6.67;;;;;;;;5079673;27;50922;-55
2022/09/05 05:12:26;;;;;;;;;8.00;6.33;;;;;;;;5083260;27;51707;-54
2022/09/05 05:14:56;;;;;;;;;7.00;7.00;;;;;;;;5074985;27;53195;-54
2022/09/05 05:17:24;;;;;;;;;6.00;6.00;;;;;;;;5092755;27;50888;-57
2022/09/05 05:19:55;;;;;;;;;6.33;6.33;;;;;;;;5090093;27;50992;-55
2022/09/05 05:22:20;;;;;;;;;6.33;6.33;;;;;;;;5090171;27;51204;-56
2022/09/05 05:24:48;;;;;;;;;9.00;8.33;;;;;;;;5085075;27;51285;-55
2022/09/05 05:27:26;;;;;;;;;6.33;6.33;;;;;;;;5091474;27;50872;-55
2022/09/05 05:30:03;;;;;;;;;8.00;7.00;;;;;;;;5081235;27;51120;-55
2022/09/05 05:32:39;;;;;;;;;7.00;7.00;;;;;;;;5082205;27;51560;-55
2022/09/05 05:35:09;;;;;;;;;6.33;6.33;;;;;;;;5081218;27;51405;-56
2022/09/05 05:37:49;;;;;;;;;10.33;9.33;;;;;;;;5083338;27;51163;-55
2022/09/05 05:40:14;;;;;;;;;10.00;8.00;;;;;;;;5077286;27;51268;-55
2022/09/05 05:42:40;;;;;;;;;8.00;7.00;;;;;;;;5083208;27;51283;-56
2022/09/05 05:45:14;;;;;;;;;5.33;5.33;;;;;;;;5085713;27;51039;-57
2022/09/05 05:47:44;;;;;;;;;5.67;5.00;;;;;;;;5081571;27;51105;-57
2022/09/05 05:50:12;;;;;;;;;6.67;6.33;;;;;;;;5085099;27;51247;-57
2022/09/05 05:52:50;;;;;;;;;8.00;7.00;;;;;;;;5086364;27;51292;-55
2022/09/05 05:55:30;;;;;;;;;7.00;7.00;;;;;;;;5083390;27;52112;-55
2022/09/05 05:58:16;;;;;;;;;7.00;7.00;;;;;;;;5088570;27;51013;-55
2022/09/05 06:00:41;;;;;;;;;8.33;8.00;;;;;;;;5082658;27;51242;-55
2022/09/05 06:03:06;;;;;;;;;7.00;7.00;;;;;;;;5085942;27;50901;-55
2022/09/05 06:05:31;;;;;;;;;8.00;8.00;;;;;;;;5085459;27;52367;-55
2022/09/05 06:08:02;;;;;;;;;6.33;5.33;;;;;;;;5087196;27;51186;-55
2022/09/05 06:10:45;;;;;;;;;6.67;6.33;;;;;;;;5082384;27;50883;-58
2022/09/05 06:13:29;;;;;;;;;7.00;6.67;;;;;;;;5083322;27;51285;-57
2022/09/05 06:16:03;;;;;;;;;6.33;6.00;;;;;;;;5085085;27;51250;-58
2022/09/05 06:18:38;;;;;;;;;6.67;6.00;;;;;;;;5082598;27;51271;-58
2022/09/05 06:21:09;;;;;;;;;4.33;4.33;;;;;;;;5085983;27;51117;-58
2022/09/05 06:23:53;;;;;;;;;6.00;5.67;;;;;;;;5078137;27;51444;-58
2022/09/05 06:26:27;;;;;;;;;6.00;5.00;;;;;;;;5077681;27;51250;-59
2022/09/05 06:28:59;;;;;;;;;3.00;3.00;;;;;;;;5075905;27;51950;-59
2022/09/05 06:31:47;;;;;;;;;4.00;4.00;;;;;;;;5078477;27;51132;-58
2022/09/05 06:34:31;;;;;;;;;5.67;5.67;;;;;;;;5077840;27;51147;-59
2022/09/05 06:36:56;;;;;;;;;5.67;5.67;;;;;;;;5072724;27;50903;-60
2022/09/05 06:39:34;;;;;;;;;8.33;8.33;;;;;;;;5080717;27;51224;-60
2022/09/05 06:42:28;;;;;;;;;7.00;7.00;;;;;;;;5079847;27;51181;-60
2022/09/05 06:45:12;;;;;;;;;8.00;8.00;;;;;;;;5067581;27;51325;-59
2022/09/05 06:47:40;;;;;;;;;8.00;7.67;;;;;;;;5081208;27;51164;-58
2022/09/05 06:50:06;;;;;;;;;6.67;6.67;;;;;;;;5076050;27;51110;-59
2022/09/05 06:52:46;;;;;;;;;8.00;6.50;;;;;;;;5081106;27;51169;-58
2022/09/05 06:55:14;;;;;;;;;4.00;4.00;;;;;;;;5078982;27;51435;-58
2022/09/05 06:57:39;;;;;;;;;6.67;6.67;;;;;;;;5083848;27;51081;-58
2022/09/05 07:00:23;;;;;;;;;7.33;6.67;;;;;;;;5082723;27;51082;-59
2022/09/05 07:02:48;;;;;;;;;7.00;7.00;;;;;;;;5072687;27;51566;-59
2022/09/05 07:05:29;;;;;;;;;10.33;10.33;;;;;;;;5074522;27;51267;-59
2022/09/05 07:07:58;;;;;;;;;7.00;7.00;;;;;;;;5079750;27;50914;-60
2022/09/05 07:10:34;;;;;;;;;7.00;7.00;;;;;;;;5091657;27;51136;-59
2022/09/05 07:13:09;;;;;;;;;6.33;5.67;;;;;;;;5086965;27;51164;-59
2022/09/05 07:15:53;;;;;;;;;3.67;3.67;;;;;;;;5081817;27;51202;-59
2022/09/05 07:18:30;;;;;;;;;7.00;7.00;;;;;;;;5083362;27;52100;-59
2022/09/05 07:20:59;;;;;;;;;5.67;5.67;;;;;;;;5081192;27;51072;-58
2022/09/05 07:23:43;;;;;;;;;8.33;7.00;;;;;;;;5073252;27;50912;-58
2022/09/05 07:26:12;;;;;;;;;9.00;8.33;;;;;;;;5089715;27;50913;-56
2022/09/05 07:28:41;;;;;;;;;7.67;6.67;;;;;;;;5086078;27;52000;-56
2022/09/05 07:31:13;;;;;;;;;5.67;5.67;;;;;;;;5096078;27;51131;-54
2022/09/05 07:33:39;;;;;;;;;6.67;6.00;;;;;;;;5092995;27;50907;-58
2022/09/05 07:36:24;;;;;;;;;5.33;5.00;;;;;;;;5089469;27;51235;-58
2022/09/05 07:38:55;;;;;;;;;5.00;4.33;;;;;;;;5090899;27;51150;-56
2022/09/05 07:41:20;;;;;;;;;5.33;5.33;;;;;;;;5083510;27;51085;-61
2022/09/05 07:43:46;;;;;;;;;4.33;4.33;;;;;;;;5072114;27;50966;-61
2022/09/05 07:46:18;;;;;;;;;4.00;4.00;;;;;;;;5089421;27;50941;-62
2022/09/05 07:48:58;;;;;;;;;5.00;5.00;;;;;;;;5080748;27;51016;-62
2022/09/05 07:51:24;;;;;;;;;6.33;6.00;;;;;;;;5085187;27;51089;-62
2022/09/05 07:53:52;;;;;;;;;32.00;29.50;;;;;;;;5079328;27;51265;-63
2022/09/05 07:56:37;;;;;;;;;10.00;10.00;;;;;;;;5071794;27;51385;-62
2022/09/05 07:59:07;;;;;;;;;5.67;5.00;;;;;;;;5077245;27;51108;-62
2022/09/05 08:01:33;;;;;;;;;5.67;4.67;;;;;;;;5072122;27;52639;-62
2022/09/05 08:03:58;;;;;;;;;5.00;5.00;;;;;;;;5070572;27;51170;-62
2022/09/05 08:06:25;;;;;;;;;9.67;9.67;;;;;;;;5071549;27;50847;-63
2022/09/05 08:08:55;;;;;;;;;7.33;5.67;;;;;;;;5071907;27;51231;-63
2022/09/05 08:11:23;;;;;;;;;5.33;5.33;;;;;;;;5072393;27;50919;-63
2022/09/05 08:13:53;;;;;;;;;6.00;5.00;;;;;;;;5072497;27;50990;-62
2022/09/05 08:16:21;;;;;;;;;6.00;6.00;;;;;;;;5077711;27;50948;-63
2022/09/05 08:18:50;;;;;;;;;6.67;6.67;;;;;;;;5071855;27;51896;-62
2022/09/05 08:21:34;;;;;;;;;6.00;5.67;;;;;;;;5071848;27;51009;-62
2022/09/05 08:24:12;;;;;;;;;5.33;5.33;;;;;;;;5072327;28;50882;-62
2022/09/05 08:26:42;;;;;;;;;5.00;5.00;;;;;;;;5072365;28;50976;-62
2022/09/05 08:29:13;;;;;;;;;5.67;5.67;;;;;;;;5072060;27;52460;-62
2022/09/05 08:31:41;;;;;;;;;5.00;5.00;;;;;;;;5072533;27;51054;-63
2022/09/05 08:34:10;;;;;;;;;4.67;4.00;;;;;;;;5071161;27;51273;-62
2022/09/05 08:36:41;;;;;;;;;6.67;5.33;;;;;;;;5073082;27;51416;-63
2022/09/05 08:39:10;;;;;;;;;5.00;5.00;;;;;;;;5072290;27;50934;-63
2022/09/05 08:41:35;;;;;;;;;5.00;4.67;;;;;;;;5072624;27;51071;-64
2022/09/05 08:44:08;;;;;;;;;6.33;6.33;;;;;;;;5072368;27;51089;-63
2022/09/05 08:46:59;;;;;;;;;6.00;5.33;;;;;;;;5071142;28;50992;-61
2022/09/05 08:49:35;;;;;;;;;7.33;6.67;;;;;;;;5072407;27;51213;-64
2022/09/05 08:52:07;;;;;;;;;2.33;2.33;;;;;;;;5073179;27;51029;-62
2022/09/05 08:54:44;;;;;;;;;12.50;11.50;;;;;;;;5082355;27;51099;-61
2022/09/05 08:57:15;;;;;;;;;5.33;4.00;;;;;;;;5074389;27;51240;-61
2022/09/05 09:00:01;;;;;;;;;4.00;4.00;;;;;;;;5087941;27;51087;-62
2022/09/05 09:02:27;;;;;;;;;10.67;9.67;;;;;;;;5083482;27;51018;-62
2022/09/05 09:05:06;;;;;;;;;5.67;5.67;;;;;;;;5074723;27;51190;-62
2022/09/05 09:07:34;;;;;;;;;6.00;4.67;;;;;;;;5074758;28;50984;-62
2022/09/05 09:10:09;;;;;;;;;8.33;8.00;;;;;;;;5074403;27;51815;-62
2022/09/05 09:12:34;;;;;;;;;6.00;6.00;;;;;;;;5075032;27;51112;-61
2022/09/05 09:15:01;;;;;;;;;6.00;6.00;;;;;;;;5074666;27;51011;-62
2022/09/05 09:17:35;;;;;;;;;8.33;7.67;;;;;;;;5080196;27;50955;-62
2022/09/05 09:20:05;;;;;;;;;5.00;5.00;;;;;;;;5074660;27;52065;-64
2022/09/05 09:22:41;;;;;;;;;8.00;7.67;;;;;;;;5074885;27;50836;-62
2022/09/05 09:25:10;;;;;;;;;7.00;6.00;;;;;;;;5083364;27;51103;-62
2022/09/05 09:27:48;;;;;;;;;5.00;5.00;;;;;;;;5078933;27;51312;-62
2022/09/05 09:30:14;;;;;;;;;6.00;6.00;;;;;;;;5074263;27;52880;-62
2022/09/05 09:32:43;;;;;;;;;7.00;6.33;;;;;;;;5074217;27;50855;-61
2022/09/05 09:35:27;;;;;;;;;10.33;9.00;;;;;;;;5074453;27;51072;-62
2022/09/05 09:38:07;;;;;;;;;6.00;5.00;;;;;;;;5074697;27;51413;-61
2022/09/05 09:40:45;;;;;;;;;5.00;5.00;;;;;;;;5073993;28;51736;-62
2022/09/05 09:43:13;;;;;;;;;5.33;5.33;;;;;;;;5074099;27;50957;-61
2022/09/05 09:45:51;;;;;;;;;4.33;4.00;;;;;;;;5073978;27;51011;-62
2022/09/05 09:48:32;;;;;;;;;6.67;5.33;;;;;;;;5074742;27;51083;-62
2022/09/05 09:50:57;;;;;;;;;5.00;5.00;;;;;;;;5074471;27;52277;-61
2022/09/05 09:53:41;;;;;;;;;2.67;2.33;;;;;;;;5084362;27;50988;-62
2022/09/05 09:56:44;;;;;;;;;4.00;4.00;;;;;;;;5074721;27;51170;-62
2022/09/05 09:59:18;;;;;;;;;3.00;3.00;;;;;;;;5083390;27;51087;-62
2022/09/05 10:02:03;;;;;;;;;2.67;2.67;;;;;;;;5090634;27;50999;-61
2022/09/05 10:04:38;;;;;;;;;3.33;2.33;;;;;;;;5073918;27;50937;-62
2022/09/05 10:07:23;;;;;;;;;3.00;3.00;;;;;;;;5072070;28;51220;-63
2022/09/05 10:10:09;;;;;;;;;3.00;3.00;;;;;;;;5073940;27;51381;-61
2022/09/05 10:12:53;;;;;;;;;3.00;3.00;;;;;;;;5072848;27;51946;-62
2022/09/05 10:15:27;;;;;;;;;2.00;2.00;;;;;;;;5073839;27;50950;-62
2022/09/05 10:18:16;;;;;;;;;3.00;3.00;;;;;;;;5074117;27;51132;-63
2022/09/05 10:21:00;;;;;;;;;3.00;3.00;;;;;;;;5074553;27;51055;-63
2022/09/05 10:23:25;;;;;;;;;3.33;3.33;;;;;;;;5073542;27;52029;-63
2022/09/05 10:26:02;;;;;;;;;3.00;3.00;;;;;;;;5073617;27;50950;-62
2022/09/05 10:28:44;;;;;;;;;3.33;3.33;;;;;;;;5073315;27;50835;-61
2022/09/05 10:31:09;;;;;;;;;2.00;2.00;;;;;;;;5071519;28;50987;-62
2022/09/05 10:33:41;;;;;;;;;2.33;2.33;;;;;;;;5073246;27;50958;-61
2022/09/05 10:36:07;;;;;;;;;3.00;3.00;;;;;;;;5073454;27;51097;-62
2022/09/05 10:38:35;;;;;;;;;2.67;2.67;;;;;;;;5073799;27;50973;-61
2022/09/05 10:41:07;;;;;;;;;5.00;5.00;;;;;;;;5073401;27;50819;-61
2022/09/05 10:43:38;;;;;;;;;2.00;2.00;;;;;;;;5072761;27;52726;-62
2022/09/05 10:46:03;;;;;;;;;3.25;3.00;;;;;;;;5072879;27;51056;-62
2022/09/05 10:48:50;;;;;;;;;5.00;5.00;;;;;;;;5072941;27;51240;-61
2022/09/05 10:51:18;;;;;;;;;2.50;2.50;;;;;;;;5073589;27;51331;-63
2022/09/05 10:53:43;;;;;;;;;2.67;2.67;;;;;;;;5084617;27;52114;-61
2022/09/05 10:56:11;;;;;;;;;1.33;1.33;;;;;;;;5073149;27;51041;-62
2022/09/05 10:58:49;;;;;;;;;3.00;3.00;;;;;;;;5077332;27;50902;-63
2022/09/05 11:01:18;;;;;;;;;2.00;2.00;;;;;;;;5084154;27;51228;-61
2022/09/05 11:03:49;;;;;;;;;3.00;3.00;;;;;;;;5072391;27;51883;-61
2022/09/05 11:06:17;;;;;;;;;2.33;2.33;;;;;;;;5070429;28;51354;-62
2022/09/05 11:08:58;;;;;;;;;3.00;2.00;;;;;;;;5072934;27;51075;-63
2022/09/05 11:11:25;;;;;;;;;4.00;4.00;;;;;;;;5072917;27;51120;-62
2022/09/05 11:13:53;;;;;;;;;4.00;4.00;;;;;;;;5072480;28;52199;-61
2022/09/05 11:16:30;;;;;;;;;3.00;3.00;;;;;;;;5079102;27;51024;-62
2022/09/05 11:18:58;;;;;;;;;6.67;5.00;;;;;;;;5093406;27;50931;-61
2022/09/05 11:21:30;;;;;;;;;3.33;3.33;;;;;;;;5093294;27;50955;-61
2022/09/05 11:23:59;;;;;;;;;3.33;3.33;;;;;;;;5091585;27;53018;-61
2022/09/05 11:26:25;;;;;;;;;3.00;3.00;;;;;;;;5093330;27;51062;-61
2022/09/05 11:28:54;;;;;;;;;4.67;4.67;;;;;;;;5080569;27;51047;-60
2022/09/05 11:31:21;;;;;;;;;4.00;4.00;;;;;;;;5071216;28;51274;-61
2022/09/05 11:33:46;;;;;;;;;3.33;3.33;;;;;;;;5072523;27;51146;-60
2022/09/05 11:36:12;;;;;;;;;5.00;5.00;;;;;;;;5072388;27;50900;-61
2022/09/05 11:38:46;;;;;;;;;3.33;3.33;;;;;;;;5072380;27;51220;-60
2022/09/05 11:41:43;;;;;;;;;3.00;2.00;;;;;;;;5073099;27;51060;-62
2022/09/05 11:44:11;;;;;;;;;5.33;5.33;;;;;;;;5079836;27;50976;-62
2022/09/05 11:46:52;;;;;;;;;2.67;2.67;;;;;;;;5071984;28;51052;-61
2022/09/05 11:49:49;;;;;;;;;3.00;2.33;;;;;;;;5071890;27;51068;-61
2022/09/05 11:52:20;;;;;;;;;3.33;3.33;;;;;;;;5083177;27;51118;-61
2022/09/05 11:55:14;;;;;;;;;4.00;4.00;;;;;;;;5079482;27;50937;-62
2022/09/05 11:57:58;;;;;;;;;2.33;2.33;;;;;;;;5072232;27;50931;-61
2022/09/05 12:00:29;;;;;;;;;2.00;2.00;;;;;;;;5089197;27;51427;-62
2022/09/05 12:02:57;;;;;;;;;4.00;4.00;;;;;;;;5079569;27;51214;-62
2022/09/05 12:05:32;;;;;;;;;4.00;4.00;;;;;;;;5070758;27;52802;-62
2022/09/05 12:07:58;;;;;;;;;3.00;3.00;;;;;;;;5069967;28;51023;-62
2022/09/05 12:10:30;;;;;;;;;4.00;4.00;;;;;;;;5071677;27;51078;-61
2022/09/05 12:13:07;;;;;;;;;2.67;2.67;;;;;;;;5071893;27;51029;-62
2022/09/05 12:15:33;;;;;;;;;4.00;4.00;;;;;;;;5073420;27;51087;-62
2022/09/05 12:18:04;;;;;;;;;5.00;4.50;;;;;;;;5075527;27;50998;-62
2022/09/05 12:20:29;;;;;;;;;4.00;4.00;;;;;;;;5072139;27;51235;-62
2022/09/05 12:23:00;;;;;;;;;4.00;3.00;;;;;;;;5071714;27;51140;-60
2022/09/05 12:25:57;;;;;;;;;3.67;2.67;;;;;;;;5071912;27;50920;-61
2022/09/05 12:28:25;;;;;;;;;4.00;3.33;;;;;;;;5069865;27;51292;-61
2022/09/05 12:30:52;;;;;;;;;3.33;3.33;;;;;;;;5070379;28;51147;-61
2022/09/05 12:33:28;;;;;;;;;4.00;4.00;;;;;;;;5075121;27;50900;-60
2022/09/05 12:36:02;;;;;;;;;3.33;3.33;;;;;;;;5074670;27;51077;-62
2022/09/05 12:38:48;;;;;;;;;4.00;4.00;;;;;;;;5075127;27;50978;-61
2022/09/05 12:41:25;;;;;;;;;5.00;5.00;;;;;;;;5075239;27;51076;-61
2022/09/05 12:44:10;;;;;;;;;2.67;2.67;;;;;;;;5074983;27;51033;-61
2022/09/05 12:46:45;;;;;;;;;5.00;5.00;;;;;;;;5073418;27;51992;-60
2022/09/05 12:49:30;;;;;;;;;4.00;4.00;;;;;;;;5075116;28;50936;-60
2022/09/05 12:52:02;;;;;;;;;4.67;4.00;;;;;;;;5074875;27;51117;-61
2022/09/05 12:54:32;;;;;;;;;6.00;6.00;;;;;;;;5085148;27;50843;-61
2022/09/05 12:56:58;;;;;;;;;5.67;5.33;;;;;;;;5074451;27;52373;-63
2022/09/05 12:59:25;;;;;;;;;4.00;4.00;;;;;;;;5085051;27;50843;-60
2022/09/05 13:02:06;;;;;;;;;5.00;4.00;;;;;;;;5080706;27;50973;-61
2022/09/05 13:04:39;;;;;;;;;4.00;4.00;;;;;;;;5074443;27;51138;-61
2022/09/05 13:07:21;;;;;;;;;3.00;2.33;;;;;;;;5073817;27;53088;-61
2022/09/05 13:09:50;;;;;;;;;10.00;9.00;;;;;;;;5074645;27;51008;-61
2022/09/05 13:12:28;;;;;;;;;3.00;3.00;;;;;;;;5074410;27;51164;-62
2022/09/05 13:15:06;;;;;;;;;3.67;3.67;;;;;;;;5072782;28;51246;-61
2022/09/05 13:17:58;;;;;;;;;6.33;6.33;;;;;;;;5079377;27;52565;-61
2022/09/05 13:20:38;;;;;;;;;3.67;3.67;;;;;;;;5073077;27;51069;-61
2022/09/05 13:23:10;;;;;;;;;3.00;3.00;;;;;;;;5073726;28;51127;-61
2022/09/05 13:25:38;;;;;;;;;5.00;5.00;;;;;;;;5074357;27;51268;-62
2022/09/05 13:28:05;;;;;;;;;5.00;5.00;;;;;;;;5072643;28;51270;-63
2022/09/05 13:30:34;;;;;;;;;4.00;4.00;;;;;;;;5073798;27;50926;-61
2022/09/05 13:33:17;;;;;;;;;4.00;3.33;;;;;;;;5074141;27;51031;-61
2022/09/05 13:36:02;;;;;;;;;4.33;4.33;;;;;;;;5074595;27;50914;-61
2022/09/05 13:38:36;;;;;;;;;4.33;4.33;;;;;;;;5074376;27;51698;-61
2022/09/05 13:41:03;;;;;;;;;3.33;3.33;;;;;;;;5074879;27;50915;-61
2022/09/05 13:43:35;;;;;;;;;4.33;4.00;;;;;;;;5072326;28;50954;-60
2022/09/05 13:46:06;;;;;;;;;3.00;2.33;;;;;;;;5074240;27;50960;-60
2022/09/05 13:48:36;;;;;;;;;1.67;1.67;;;;;;;;5074368;27;52412;-61
2022/09/05 13:51:26;;;;;;;;;3.67;3.33;;;;;;;;5074306;27;50961;-61
2022/09/05 13:54:10;;;;;;;;;6.00;4.67;;;;;;;;5085769;27;51268;-61
2022/09/05 13:56:42;;;;;;;;;4.00;4.00;;;;;;;;5074183;27;50997;-61
2022/09/05 13:59:10;;;;;;;;;4.00;4.00;;;;;;;;5073984;27;50962;-61
2022/09/05 14:01:53;;;;;;;;;3.00;3.00;;;;;;;;5084607;27;50975;-61
2022/09/05 14:04:33;;;;;;;;;4.67;4.67;;;;;;;;5074230;27;50835;-61
2022/09/05 14:07:17;;;;;;;;;3.00;1.67;;;;;;;;5073783;27;51334;-61
2022/09/05 14:09:45;;;;;;;;;4.00;4.00;;;;;;;;5073654;27;52054;-61
2022/09/05 14:12:23;;;;;;;;;4.00;4.00;;;;;;;;5073445;27;51034;-62
2022/09/05 14:14:51;;;;;;;;;4.00;4.00;;;;;;;;5073206;27;51096;-61
2022/09/05 14:17:18;;;;;;;;;8.67;8.33;;;;;;;;5077464;27;51373;-62
2022/09/05 14:22:31;;;;;;;;;4.00;4.00;;;;;;;;5072919;28;50985;-62
2022/09/05 14:24:57;;;;;;;;;6.00;6.00;;;;;;;;5073909;27;51081;-62
2022/09/05 14:27:23;;;;;;;;;5.00;5.00;;;;;;;;5073330;27;51102;-59
2022/09/05 14:29:48;;;;;;;;;7.33;6.67;;;;;;;;5072586;28;51896;-61
2022/09/05 14:32:22;;;;;;;;;3.67;3.67;;;;;;;;5073073;27;51078;-61
2022/09/05 14:35:06;;;;;;;;;5.67;5.67;;;;;;;;5073261;27;51079;-62
2022/09/05 14:37:54;;;;;;;;;4.00;4.00;;;;;;;;5073176;27;51270;-62
2022/09/05 14:40:49;;;;;;;;;6.00;6.00;;;;;;;;5071332;28;53599;-62
2022/09/05 14:43:14;;;;;;;;;4.33;4.33;;;;;;;;5079995;27;51082;-61
2022/09/05 14:45:40;;;;;;;;;6.00;6.00;;;;;;;;5072790;27;51085;-62
2022/09/05 14:48:05;;;;;;;;;5.75;5.75;;;;;;;;5074056;27;51143;-61
2022/09/05 14:50:36;;;;;;;;;6.00;5.00;;;;;;;;5072918;27;51152;-62
2022/09/05 14:53:22;;;;;;;;;4.67;4.67;;;;;;;;5081441;27;51000;-61
2022/09/05 14:56:14;;;;;;;;;5.33;5.33;;;;;;;;5072854;27;51209;-61
2022/09/05 14:58:40;;;;;;;;;2.00;2.00;;;;;;;;5080872;27;51124;-62
2022/09/05 15:01:09;;;;;;;;;4.00;4.00;;;;;;;;5092766;27;50927;-62
2022/09/05 15:03:35;;;;;;;;;5.00;5.00;;;;;;;;5073777;27;51181;-62
2022/09/05 15:06:11;;;;;;;;;5.00;4.33;;;;;;;;5072369;27;51143;-62
2022/09/05 15:08:36;;;;;;;;;6.00;5.00;;;;;;;;5072950;27;51184;-63
2022/09/05 15:11:08;;;;;;;;;4.00;4.00;;;;;;;;5072805;27;52216;-62
2022/09/05 15:13:33;;;;;;;;;6.33;6.33;;;;;;;;5071505;28;51054;-61
2022/09/05 15:16:10;;;;;;;;;4.67;4.00;;;;;;;;5077071;27;50886;-61
2022/09/05 15:18:41;;;;;;;;;6.00;6.00;;;;;;;;5073093;27;51224;-61
2022/09/05 15:21:39;;;;;;;;;5.67;5.67;;;;;;;;5072178;27;51869;-62
2022/09/05 15:24:23;;;;;;;;;4.00;4.00;;;;;;;;5071115;27;51151;-62
2022/09/05 15:27:11;;;;;;;;;5.33;5.00;;;;;;;;5072581;27;50951;-61
2022/09/05 15:29:37;;;;;;;;;5.67;5.67;;;;;;;;5071630;27;51319;-61